Time;durP1;ratioP1;P1;durP2;ratioP2;P2;SDS_P1;SDS_P2;PMS_P1;PMS_P2;Temp;Humidity;BMP_temperature;BMP_pressure;BME280_temperature;BME280_humidity;BME280_pressure;Samples;Min_cycle;Max_cycle;Signal;HPM_P1;HPM_P2
2021/01/13 00:00:20;;;;;;;12.50;11.30;;;;;;;-0.60;100.00;95625.50;1040481;28;20103;-75
2021/01/13 00:00:51;;;;;;;13.52;12.18;;;;;;;-0.60;100.00;95620.28;1036564;28;20030;-73
2021/01/13 00:01:28;;;;;;;13.05;11.75;;;;;;;-0.63;100.00;95624.13;1028449;28;20731;-75
2021/01/13 00:01:58;;;;;;;13.23;11.80;;;;;;;-0.60;100.00;95633.28;1020366;29;20311;-74
2021/01/13 00:02:29;;;;;;;13.55;12.15;;;;;;;-0.60;100.00;95636.69;1021288;29;20271;-74
2021/01/13 00:02:59;;;;;;;12.88;11.57;;;;;;;-0.64;100.00;95624.31;1028259;28;20026;-75
2021/01/13 00:03:30;;;;;;;12.15;10.95;;;;;;;-0.67;100.00;95615.16;1027614;28;20037;-76
2021/01/13 00:04:00;;;;;;;12.30;11.10;;;;;;;-0.58;100.00;95636.47;1032477;28;20037;-73
2021/01/13 00:04:31;;;;;;;11.93;10.73;;;;;;;-0.57;100.00;95632.09;1032801;28;20475;-75
2021/01/13 00:05:01;;;;;;;11.82;10.65;;;;;;;-0.60;100.00;95635.88;1040744;28;20037;-74
2021/01/13 00:05:32;;;;;;;12.40;11.20;;;;;;;-0.61;100.00;95629.13;1039980;28;20067;-76
2021/01/13 00:06:04;;;;;;;12.00;10.80;;;;;;;-0.63;100.00;95634.53;1040470;28;20489;-75
2021/01/13 00:06:35;;;;;;;12.13;10.93;;;;;;;-0.60;100.00;95633.28;1040486;28;20087;-74
2021/01/13 00:07:05;;;;;;;11.98;10.77;;;;;;;-0.61;100.00;95627.31;1040616;28;20744;-74
2021/01/13 00:07:36;;;;;;;11.80;10.60;;;;;;;-0.62;100.00;95628.28;1040364;28;20025;-74
2021/01/13 00:08:08;;;;;;;11.77;10.68;;;;;;;-0.62;100.00;95628.28;1040391;28;20641;-74
2021/01/13 00:08:39;;;;;;;11.48;10.38;;;;;;;-0.61;100.00;95629.13;1040050;28;20049;-74
2021/01/13 00:09:10;;;;;;;11.55;9.85;;;;;;;-0.63;100.00;95629.31;1040610;28;20291;-74
2021/01/13 00:09:41;;;;;;;12.18;11.00;;;;;;;-0.65;100.00;95631.34;1040304;28;20021;-76
2021/01/13 00:10:13;;;;;;;12.43;11.07;;;;;;;-0.68;100.00;95623.16;1036250;28;20277;-75
2021/01/13 00:10:44;;;;;;;11.75;10.65;;;;;;;-0.69;100.00;95632.75;1036277;28;20280;-74
2021/01/13 00:11:16;;;;;;;11.25;10.15;;;;;;;-0.71;100.00;95639.97;1027980;28;20274;-76
2021/01/13 00:11:46;;;;;;;12.32;10.98;;;;;;;-0.70;100.00;95631.16;1028629;28;20070;-75
2021/01/13 00:12:17;;;;;;;10.98;9.88;;;;;;;-0.73;100.00;95634.19;1032331;28;20256;-75
2021/01/13 00:12:48;;;;;;;12.60;10.93;;;;;;;-0.74;100.00;95642.19;1028979;28;20622;-74
2021/01/13 00:13:19;;;;;;;12.10;10.93;;;;;;;-0.74;100.00;95640.38;1036522;28;20022;-75
2021/01/13 00:13:50;;;;;;;10.88;9.80;;;;;;;-0.73;100.00;95641.16;1039993;28;20356;-74
2021/01/13 00:14:21;;;;;;;11.63;10.30;;;;;;;-0.74;100.00;95642.97;1040905;28;20299;-75
2021/01/13 00:14:52;;;;;;;12.38;11.07;;;;;;;-0.76;100.00;95647.59;1040391;28;20022;-74
2021/01/13 00:15:24;;;;;;;12.02;10.55;;;;;;;-0.77;100.00;95643.41;1039936;28;20264;-74
2021/01/13 00:15:55;;;;;;;11.35;10.25;;;;;;;-0.78;100.00;95641.81;1032101;28;20027;-75
2021/01/13 00:16:25;;;;;;;11.43;10.32;;;;;;;-0.77;100.00;95643.41;1032735;28;20774;-74
2021/01/13 00:16:55;;;;;;;11.40;10.20;;;;;;;-0.78;100.00;95644.41;1036235;28;20018;-75
2021/01/13 00:17:26;;;;;;;12.05;10.85;;;;;;;-0.78;100.00;95644.41;1036276;28;20112;-74
2021/01/13 00:17:57;;;;;;;12.35;10.55;;;;;;;-0.79;100.00;95650.63;1040612;28;20104;-73
2021/01/13 00:18:27;;;;;;;12.50;11.13;;;;;;;-0.81;100.00;95645.63;1040571;28;20029;-75
2021/01/13 00:18:57;;;;;;;12.15;10.95;;;;;;;-0.79;100.00;95645.44;1040618;28;20025;-75
2021/01/13 00:19:28;;;;;;;13.48;11.27;;;;;;;-0.81;100.00;95650.84;1040690;28;20020;-75
2021/01/13 00:19:58;;;;;;;11.98;10.77;;;;;;;-0.82;100.00;95653.63;1036172;28;20033;-73
2021/01/13 00:20:29;;;;;;;11.65;10.45;;;;;;;-0.83;100.00;95652.06;1036102;28;20030;-75
2021/01/13 00:20:59;;;;;;;14.93;11.85;;;;;;;-0.87;100.00;95646.47;1036253;28;20072;-75
2021/01/13 00:21:30;;;;;;;13.15;11.75;;;;;;;-0.86;100.00;95642.06;1032259;28;20026;-76
2021/01/13 00:22:00;;;;;;;12.55;11.25;;;;;;;-0.87;100.00;95645.69;1034936;28;20022;-75
2021/01/13 00:22:31;;;;;;;11.82;10.63;;;;;;;-0.86;100.00;95649.88;1032103;28;20030;-74
2021/01/13 00:23:01;;;;;;;12.15;10.93;;;;;;;-0.87;100.00;95650.88;1024238;28;20103;-74
2021/01/13 00:23:32;;;;;;;12.55;11.25;;;;;;;-0.89;100.00;95645.06;1023849;29;20027;-74
2021/01/13 00:24:03;;;;;;;12.63;11.32;;;;;;;-0.89;100.00;95645.88;1023882;29;20024;-73
2021/01/13 00:24:34;;;;;;;12.68;11.35;;;;;;;-0.89;100.00;95645.88;1024570;28;20030;-74
2021/01/13 00:25:05;;;;;;;11.98;10.77;;;;;;;-0.88;100.00;95644.09;1027700;28;20043;-73
2021/01/13 00:25:35;;;;;;;12.70;11.13;;;;;;;-0.91;100.00;95641.88;1032188;28;20105;-74
2021/01/13 00:26:07;;;;;;;14.15;12.65;;;;;;;-0.93;100.00;95644.72;1032170;28;20026;-73
2021/01/13 00:26:38;;;;;;;12.30;11.00;;;;;;;-0.95;100.00;95651.09;1028564;28;20750;-73
2021/01/13 00:27:08;;;;;;;14.13;12.63;;;;;;;-1.05;100.00;95635.97;1027526;28;20351;-74
2021/01/13 00:27:39;;;;;;;14.10;12.40;;;;;;;-0.98;100.00;95646.34;1028066;28;20121;-73
2021/01/13 00:28:09;;;;;;;12.73;11.43;;;;;;;-1.01;100.00;95644.97;1028081;28;20031;-76
2021/01/13 00:28:40;;;;;;;13.27;11.98;;;;;;;-1.03;100.00;95650.38;1034202;28;20095;-73
2021/01/13 00:29:11;;;;;;;13.32;11.68;;;;;;;-1.03;100.00;95644.34;1040491;28;20030;-74
2021/01/13 00:29:42;;;;;;;12.68;11.30;;;;;;;-1.04;100.00;95648.75;1036107;28;20041;-74
2021/01/13 00:30:13;;;;;;;12.00;10.80;;;;;;;-1.05;100.00;95644.59;1036214;28;20320;-75
2021/01/13 00:30:44;;;;;;;12.65;11.23;;;;;;;-1.05;100.00;95641.16;1036236;28;20137;-73
2021/01/13 00:31:15;;;;;;;12.48;11.23;;;;;;;-1.05;100.00;95651.56;1036491;28;20662;-74
2021/01/13 00:31:45;;;;;;;12.32;10.85;;;;;;;-1.07;100.00;95644.00;1040551;28;20022;-73
2021/01/13 00:32:16;;;;;;;12.10;10.85;;;;;;;-1.08;100.00;95650.19;1040474;28;20404;-74
2021/01/13 00:32:46;;;;;;;13.52;11.10;;;;;;;-1.09;100.00;95650.38;1040514;28;20101;-75
2021/01/13 00:33:17;;;;;;;12.48;11.07;;;;;;;-1.11;100.00;95649.78;1040037;28;20485;-73
2021/01/13 00:33:47;;;;;;;13.25;11.70;;;;;;;-1.15;100.00;95648.63;1040127;28;20036;-74
2021/01/13 00:34:18;;;;;;;12.18;10.88;;;;;;;-1.16;100.00;95650.44;1027933;28;20452;-73
2021/01/13 00:34:49;;;;;;;12.13;10.70;;;;;;;-1.20;100.00;95644.84;1024094;28;20267;-73
2021/01/13 00:35:19;;;;;;;13.48;11.77;;;;;;;-1.20;100.00;95646.66;1024056;29;20058;-75
2021/01/13 00:35:50;;;;;;;13.93;12.50;;;;;;;-1.18;100.00;95646.47;1024560;28;20030;-74
2021/01/13 00:36:24;;;;;;;13.70;11.73;;;;;;;-1.20;100.00;95650.03;1032172;28;20035;-74
2021/01/13 00:36:55;;;;;;;13.27;11.45;;;;;;;-1.20;100.00;95646.66;1028039;28;20038;-75
2021/01/13 00:37:26;;;;;;;13.73;11.95;;;;;;;-1.25;100.00;95644.69;1028045;28;20271;-74
2021/01/13 00:37:56;;;;;;;13.65;11.75;;;;;;;-1.25;100.00;95656.84;1024746;28;20114;-75
2021/01/13 00:38:27;;;;;;;14.73;11.77;;;;;;;-1.26;100.00;95655.28;1019946;29;20016;-73
2021/01/13 00:38:57;;;;;;;13.02;11.43;;;;;;;-1.22;100.00;95659.06;1023889;29;20058;-73
2021/01/13 00:39:29;;;;;;;15.55;12.20;;;;;;;-1.26;100.00;95658.66;1020063;29;20380;-73
2021/01/13 00:39:59;;;;;;;12.82;11.35;;;;;;;-1.23;100.00;95660.84;1020375;29;20512;-74
2021/01/13 00:40:30;;;;;;;13.52;11.90;;;;;;;-1.28;100.00;95658.06;1022620;28;20271;-73
2021/01/13 00:41:01;;;;;;;13.82;12.32;;;;;;;-1.26;100.00;95661.25;1028358;28;20069;-73
2021/01/13 00:41:32;;;;;;;13.65;10.75;;;;;;;-1.30;100.00;95657.47;1032146;28;20117;-74
2021/01/13 00:42:05;;;;;;;13.48;11.77;;;;;;;-1.26;100.00;95663.06;1028343;28;20334;-73
2021/01/13 00:42:48;;;;;;;14.73;12.27;;;;;;;-1.28;100.00;95667.66;1032131;28;20517;-74
2021/01/13 00:43:18;;;;;;;14.35;11.77;;;;;;;-1.31;100.00;95668.88;1027992;28;20280;-75
2021/01/13 00:43:50;;;;;;;13.07;11.77;;;;;;;-1.32;100.00;95669.09;1024031;29;20615;-73
2021/01/13 00:44:21;;;;;;;14.55;12.10;;;;;;;-1.33;100.00;95668.25;1024024;29;20019;-73
2021/01/13 00:44:51;;;;;;;14.75;12.27;;;;;;;-1.37;100.00;95653.31;1024424;28;20812;-74
2021/01/13 00:45:22;;;;;;;15.45;12.65;;;;;;;-1.32;100.00;95674.28;1028519;28;20057;-75
2021/01/13 00:45:52;;;;;;;14.65;12.57;;;;;;;-1.32;100.00;95663.91;1036416;28;20022;-73
2021/01/13 00:46:23;;;;;;;15.57;12.70;;;;;;;-1.38;100.00;95654.34;1036311;28;20026;-74
2021/01/13 00:46:54;;;;;;;14.25;12.30;;;;;;;-1.40;100.00;95652.72;1036535;28;20026;-72
2021/01/13 00:47:25;;;;;;;17.27;12.68;;;;;;;-1.36;100.00;95667.91;1036095;28;20505;-74
2021/01/13 00:48:00;;;;;;;15.32;12.38;;;;;;;-1.38;100.00;95672.50;1036339;28;20296;-73
2021/01/13 00:48:30;;;;;;;16.35;13.27;;;;;;;-1.38;100.00;95669.91;1032010;28;20494;-73
2021/01/13 00:49:02;;;;;;;15.43;13.02;;;;;;;-1.39;100.00;95666.50;1032133;28;20266;-73
2021/01/13 00:49:33;;;;;;;17.38;12.98;;;;;;;-1.41;100.00;95674.50;1032031;28;20105;-74
2021/01/13 00:50:04;;;;;;;14.07;12.35;;;;;;;-1.41;100.00;95671.09;1032243;28;20348;-74
2021/01/13 00:50:34;;;;;;;13.98;12.48;;;;;;;-1.44;100.00;95669.72;1036393;28;20020;-73
2021/01/13 00:51:05;;;;;;;14.27;12.68;;;;;;;-1.43;100.00;95671.31;1036348;28;20265;-72
2021/01/13 00:51:36;;;;;;;15.50;13.63;;;;;;;-1.40;100.00;95670.09;1036338;28;20017;-74
2021/01/13 00:52:09;;;;;;;14.25;12.75;;;;;;;-1.43;100.00;95668.72;1032038;28;20049;-73
2021/01/13 00:52:46;;;;;;;15.75;12.98;;;;;;;-1.42;100.00;95670.31;1032033;28;20265;-75
2021/01/13 00:53:16;;;;;;;15.95;13.00;;;;;;;-1.45;100.00;95668.13;1027941;28;20266;-75
2021/01/13 00:53:47;;;;;;;16.25;13.55;;;;;;;-1.48;100.00;95658.16;1029125;28;20250;-74
2021/01/13 00:54:17;;;;;;;15.30;13.23;;;;;;;-1.51;100.00;95668.94;1027732;28;20030;-74
2021/01/13 00:54:49;;;;;;;15.73;13.73;;;;;;;-1.46;100.00;95668.34;1028098;28;20503;-73
2021/01/13 00:55:19;;;;;;;14.90;12.93;;;;;;;-1.47;100.00;95666.72;1027900;28;20475;-73
2021/01/13 00:55:50;;;;;;;15.55;13.85;;;;;;;-1.51;100.00;95666.34;1028316;28;20302;-73
2021/01/13 00:56:23;;;;;;;16.80;13.55;;;;;;;-1.51;100.00;95665.56;1032042;28;20033;-74
2021/01/13 00:56:54;;;;;;;14.88;12.82;;;;;;;-1.52;100.00;95666.56;1028460;28;20023;-74
2021/01/13 00:57:24;;;;;;;13.88;12.27;;;;;;;-1.51;100.00;95666.34;1031915;28;20312;-74
2021/01/13 00:57:55;;;;;;;15.15;13.23;;;;;;;-1.50;100.00;95667.94;1023964;29;20044;-73
2021/01/13 00:58:25;;;;;;;15.52;13.27;;;;;;;-1.50;100.00;95662.75;1023963;29;20460;-73
2021/01/13 00:58:57;;;;;;;13.27;11.80;;;;;;;-1.50;100.00;95662.75;1024082;28;20022;-74
2021/01/13 00:59:28;;;;;;;14.38;12.85;;;;;;;-1.48;100.00;95659.97;1028676;28;20069;-73
2021/01/13 00:59:58;;;;;;;16.83;13.77;;;;;;;-1.51;100.00;95658.56;1036325;28;20614;-73
2021/01/13 01:00:29;;;;;;;14.55;12.52;;;;;;;-1.52;100.00;95667.34;1035584;28;20037;-73
2021/01/13 01:01:01;;;;;;;15.40;13.68;;;;;;;-1.52;100.00;95664.75;1023871;29;20038;-73
2021/01/13 01:01:31;;;;;;;15.45;13.50;;;;;;;-1.52;100.00;95669.16;1023633;29;20417;-72
2021/01/13 01:02:01;;;;;;;13.95;12.43;;;;;;;-1.51;100.00;95668.94;1019982;29;20263;-73
2021/01/13 01:02:32;;;;;;;15.35;13.00;;;;;;;-1.52;100.00;95669.16;1020682;28;20108;-75
2021/01/13 01:03:02;;;;;;;15.23;13.63;;;;;;;-1.52;100.00;95667.34;1027940;28;20031;-73
2021/01/13 01:03:33;;;;;;;14.73;13.18;;;;;;;-1.56;100.00;95670.56;1020222;28;20182;-74
2021/01/13 01:04:04;;;;;;;15.73;13.60;;;;;;;-1.55;100.00;95675.53;1023986;29;20523;-74
2021/01/13 01:04:35;;;;;;;16.15;14.00;;;;;;;-1.54;100.00;95674.53;1024077;29;20063;-72
2021/01/13 01:05:06;;;;;;;15.50;13.73;;;;;;;-1.54;100.00;95677.16;1024204;28;20330;-73
2021/01/13 01:05:36;;;;;;;14.50;12.50;;;;;;;-1.57;100.00;95676.75;1028206;28;20099;-73
2021/01/13 01:06:08;;;;;;;14.90;13.35;;;;;;;-1.56;100.00;95679.16;1027887;28;20283;-74
2021/01/13 01:06:39;;;;;;;15.75;13.65;;;;;;;-1.56;100.00;95684.34;1027872;28;20030;-72
2021/01/13 01:07:09;;;;;;;16.10;14.40;;;;;;;-1.59;100.00;95684.72;1024268;28;20271;-74
2021/01/13 01:07:41;;;;;;;14.05;12.60;;;;;;;-1.56;100.00;95692.13;1023437;29;20078;-72
2021/01/13 01:08:11;;;;;;;15.25;12.85;;;;;;;-1.55;100.00;95678.13;1024186;28;20124;-72
2021/01/13 01:08:42;;;;;;;15.27;13.50;;;;;;;-1.58;100.00;95680.38;1027812;28;20330;-72
2021/01/13 01:09:12;;;;;;;16.08;12.80;;;;;;;-1.60;100.00;95676.16;1031991;28;20508;-74
2021/01/13 01:09:43;;;;;;;16.40;13.25;;;;;;;-1.61;100.00;95686.72;1036294;28;20014;-73
2021/01/13 01:10:22;;;;;;;14.68;12.48;;;;;;;-1.58;100.00;95688.16;1031990;28;20022;-74
2021/01/13 01:10:54;;;;;;;15.20;12.55;;;;;;;-1.60;100.00;95693.53;1031834;28;20468;-74
2021/01/13 01:11:31;;;;;;;13.70;12.15;;;;;;;-1.58;100.00;95693.34;1031998;28;20403;-73
2021/01/13 01:12:01;;;;;;;15.75;13.02;;;;;;;-1.61;100.00;95695.31;1031978;28;20258;-73
2021/01/13 01:12:32;;;;;;;13.07;11.55;;;;;;;-1.59;100.00;95695.09;1032674;28;20698;-75
2021/01/13 01:13:02;;;;;;;15.05;12.60;;;;;;;-1.61;100.00;95694.53;1036370;28;20030;-73
2021/01/13 01:13:33;;;;;;;15.10;12.82;;;;;;;-1.60;100.00;95706.50;1036280;28;20045;-73
2021/01/13 01:14:04;;;;;;;16.58;12.57;;;;;;;-1.67;100.00;95697.94;1036293;28;20095;-73
2021/01/13 01:14:36;;;;;;;15.65;12.95;;;;;;;-1.65;100.00;95704.50;1036366;28;20026;-75
2021/01/13 01:15:06;;;;;;;14.73;13.13;;;;;;;-1.68;100.00;95699.72;1027909;28;20265;-74
2021/01/13 01:15:37;;;;;;;16.02;13.43;;;;;;;-1.67;100.00;95711.69;1023744;28;20266;-71
2021/01/13 01:16:08;;;;;;;16.48;13.40;;;;;;;-1.69;100.00;95703.31;1024005;29;20369;-73
2021/01/13 01:16:40;;;;;;;16.58;13.82;;;;;;;-1.66;100.00;95712.50;1024610;28;20027;-73
2021/01/13 01:17:12;;;;;;;15.13;13.13;;;;;;;-1.68;100.00;95709.31;1028163;28;20288;-73
2021/01/13 01:17:42;;;;;;;16.63;13.55;;;;;;;-1.72;100.00;95708.13;1031173;28;20270;-72
2021/01/13 01:18:13;;;;;;;13.93;12.38;;;;;;;-1.72;100.00;95700.34;1027946;28;20258;-71
2021/01/13 01:18:43;;;;;;;15.32;13.73;;;;;;;-1.72;100.00;95703.75;1028146;28;20055;-73
2021/01/13 01:19:14;;;;;;;15.15;13.13;;;;;;;-1.72;100.00;95710.72;1027996;28;20496;-72
2021/01/13 01:19:44;;;;;;;15.02;13.30;;;;;;;-1.73;100.00;95703.94;1027967;28;20094;-72
2021/01/13 01:20:15;;;;;;;15.25;13.65;;;;;;;-1.80;100.00;95699.56;1019908;29;20370;-74
2021/01/13 01:20:47;;;;;;;16.88;14.60;;;;;;;-1.76;100.00;95702.56;1016247;29;20023;-73
2021/01/13 01:21:18;;;;;;;17.83;13.40;;;;;;;-1.76;100.00;95705.16;1019992;29;20030;-73
2021/01/13 01:21:48;;;;;;;15.35;12.95;;;;;;;-1.78;100.00;95701.97;1020844;28;20298;-72
2021/01/13 01:22:19;;;;;;;14.50;13.00;;;;;;;-1.74;100.00;95708.34;1028301;28;20510;-71
2021/01/13 01:22:53;;;;;;;16.88;14.45;;;;;;;-1.77;100.00;95708.72;1031833;28;20022;-72
2021/01/13 01:23:24;;;;;;;16.13;14.13;;;;;;;-1.77;100.00;95697.56;1031561;28;20057;-73
2021/01/13 01:23:55;;;;;;;15.07;13.40;;;;;;;-1.78;100.00;95704.53;1031373;28;20352;-73
2021/01/13 01:24:25;;;;;;;15.88;13.25;;;;;;;-1.75;100.00;95713.72;1032344;28;20010;-73
2021/01/13 01:24:55;;;;;;;15.57;13.48;;;;;;;-1.78;100.00;95704.53;1036346;28;20022;-73
2021/01/13 01:25:27;;;;;;;15.68;13.98;;;;;;;-1.79;100.00;95710.72;1035776;28;20417;-71
2021/01/13 01:25:58;;;;;;;15.98;13.95;;;;;;;-1.79;100.00;95705.53;1036298;28;20029;-72
2021/01/13 01:26:28;;;;;;;17.27;13.68;;;;;;;-1.75;100.00;95700.75;1031851;28;20276;-72
2021/01/13 01:26:59;;;;;;;16.70;14.00;;;;;;;-1.79;100.00;95695.16;1023843;29;20038;-73
2021/01/13 01:27:29;;;;;;;18.73;14.32;;;;;;;-1.75;100.00;95704.13;1023834;29;20067;-73
2021/01/13 01:28:00;;;;;;;17.05;14.15;;;;;;;-1.77;100.00;95700.16;1024025;28;20472;-73
2021/01/13 01:28:30;;;;;;;19.02;15.65;;;;;;;-1.75;100.00;95698.94;1020088;29;20047;-71
2021/01/13 01:29:03;;;;;;;16.63;13.93;;;;;;;-1.75;100.00;95698.94;1012226;29;20056;-73
2021/01/13 01:29:36;;;;;;;15.65;13.27;;;;;;;-1.74;100.00;95700.56;1016043;29;20055;-73
2021/01/13 01:30:08;;;;;;;17.98;14.52;;;;;;;-1.73;100.00;95704.72;1015973;29;20291;-72
2021/01/13 01:30:39;;;;;;;17.50;14.27;;;;;;;-1.74;100.00;95700.56;1016871;29;20261;-72
2021/01/13 01:31:09;;;;;;;17.15;14.30;;;;;;;-1.76;100.00;95699.13;1020494;29;20276;-74
2021/01/13 01:31:40;;;;;;;16.70;14.05;;;;;;;-1.77;100.00;95698.34;1020879;28;20075;-74
2021/01/13 01:32:11;;;;;;;18.13;14.77;;;;;;;-1.80;100.00;95694.38;1031859;28;20057;-73
2021/01/13 01:32:44;;;;;;;16.40;14.23;;;;;;;-1.86;100.00;95690.00;1027363;28;20038;-73
2021/01/13 01:33:14;;;;;;;17.35;14.52;;;;;;;-1.77;100.00;95700.16;1026931;28;20278;-73
2021/01/13 01:33:46;;;;;;;17.40;14.82;;;;;;;-1.76;100.00;95697.34;1027315;28;20018;-73
2021/01/13 01:34:17;;;;;;;17.52;14.40;;;;;;;-1.78;100.00;95703.72;1028089;28;20043;-73
2021/01/13 01:34:50;;;;;;;18.40;14.73;;;;;;;-1.78;100.00;95698.53;1028029;28;20262;-72
2021/01/13 01:35:20;;;;;;;19.08;14.82;;;;;;;-1.76;100.00;95701.72;1019403;29;20042;-74
2021/01/13 01:35:51;;;;;;;19.52;14.55;;;;;;;-1.73;100.00;95716.91;1019964;29;20286;-72
2021/01/13 01:36:22;;;;;;;17.73;14.75;;;;;;;-1.75;100.00;95708.53;1019984;29;20022;-74
2021/01/13 01:36:55;;;;;;;17.23;14.77;;;;;;;-1.75;100.00;95711.13;1020192;28;20519;-73
2021/01/13 01:37:26;;;;;;;16.70;14.60;;;;;;;-1.69;100.00;95707.72;1028506;28;20014;-73
2021/01/13 01:37:56;;;;;;;18.05;14.13;;;;;;;-1.71;100.00;95710.50;1032175;28;20742;-72
2021/01/13 01:38:27;;;;;;;17.15;14.80;;;;;;;-1.71;100.00;95707.91;1027410;28;20074;-74
2021/01/13 01:38:57;;;;;;;17.73;14.80;;;;;;;-1.72;100.00;95708.94;1027975;28;20018;-73
2021/01/13 01:39:28;;;;;;;17.75;14.05;;;;;;;-1.74;100.00;95705.75;1023819;29;20094;-72
2021/01/13 01:39:58;;;;;;;16.30;14.07;;;;;;;-1.71;100.00;95712.31;1023922;28;20082;-73
2021/01/13 01:40:29;;;;;;;15.82;13.75;;;;;;;-1.77;100.00;95708.72;1027846;28;20062;-74
2021/01/13 01:41:06;;;;;;;15.48;13.82;;;;;;;-1.72;100.00;95715.91;1028006;28;20027;-73
2021/01/13 01:41:37;;;;;;;14.00;12.50;;;;;;;-1.69;100.00;95720.69;1032106;28;20014;-74
2021/01/13 01:42:11;;;;;;;16.23;13.73;;;;;;;-1.72;100.00;95713.31;1031584;28;20614;-73
2021/01/13 01:42:52;;;;;;;14.40;11.93;;;;;;;-1.67;100.00;95716.09;1019778;29;20028;-73
2021/01/13 01:43:23;;;;;;;14.93;11.57;;;;;;;-1.71;100.00;95717.50;1019956;29;20299;-73
2021/01/13 01:43:53;;;;;;;15.98;13.10;;;;;;;-1.70;100.00;95719.09;1019952;29;20259;-74
2021/01/13 01:44:23;;;;;;;15.00;12.88;;;;;;;-1.73;100.00;95722.09;1024576;28;20053;-72
2021/01/13 01:44:54;;;;;;;16.42;13.43;;;;;;;-1.79;100.00;95718.50;1028158;28;20059;-74
2021/01/13 01:45:25;;;;;;;14.00;12.00;;;;;;;-1.73;100.00;95720.28;1028753;28;20015;-73
2021/01/13 01:45:56;;;;;;;15.38;12.60;;;;;;;-1.75;100.00;95719.69;1028733;28;20022;-73
2021/01/13 01:46:27;;;;;;;13.90;12.45;;;;;;;-1.75;100.00;95721.50;1032111;28;20297;-72
2021/01/13 01:46:57;;;;;;;14.00;12.30;;;;;;;-1.75;100.00;95724.88;1032761;28;20669;-73
2021/01/13 01:47:39;;;;;;;14.57;12.57;;;;;;;-1.77;100.00;95719.09;1028606;28;20022;-73
2021/01/13 01:48:16;;;;;;;15.40;12.70;;;;;;;-1.76;100.00;95717.28;1024652;28;20027;-74
2021/01/13 01:48:54;;;;;;;16.92;12.02;;;;;;;-1.75;100.00;95722.28;1016793;29;20276;-75
2021/01/13 01:49:24;;;;;;;15.23;11.93;;;;;;;-1.78;100.00;95717.53;1023559;29;20257;-72
2021/01/13 01:49:54;;;;;;;13.60;12.13;;;;;;;-1.76;100.00;95723.31;1024689;28;20640;-73
2021/01/13 01:50:36;;;;;;;18.17;13.20;;;;;;;-1.77;100.00;95721.69;1026829;28;20023;-74
2021/01/13 01:51:08;;;;;;;13.98;11.65;;;;;;;-1.83;100.00;95712.91;1032803;28;20036;-74
2021/01/13 01:51:46;;;;;;;15.00;12.55;;;;;;;-1.77;100.00;95723.50;1032710;28;20336;-73
2021/01/13 01:52:17;;;;;;;16.00;12.65;;;;;;;-1.77;100.00;95729.47;1035543;28;20638;-73
2021/01/13 01:52:52;;;;;;;16.65;13.23;;;;;;;-1.85;100.00;95711.53;1036146;28;20263;-74
2021/01/13 01:54:00;;;;;;;15.20;12.10;;;;;;;-1.73;100.00;95728.06;1032319;28;20014;-74
2021/01/13 01:54:34;;;;;;;13.43;11.75;;;;;;;-1.75;100.00;95729.28;1036497;28;20269;-74
2021/01/13 01:55:05;;;;;;;15.43;12.02;;;;;;;-1.73;100.00;95730.66;1034512;28;20284;-73
2021/01/13 01:56:00;;;;;;;13.95;12.18;;;;;;;-1.66;100.00;95728.88;1026947;28;20424;-73
2021/01/13 01:56:38;;;;;;;14.85;12.18;;;;;;;-1.68;100.00;95730.06;1020737;29;20736;-72
2021/01/13 01:57:08;;;;;;;14.20;11.52;;;;;;;-1.70;100.00;95732.88;1021083;29;20314;-73
2021/01/13 01:57:40;;;;;;;17.85;13.13;;;;;;;-1.69;100.00;95733.66;1016705;29;20263;-73
2021/01/13 01:58:11;;;;;;;15.70;12.27;;;;;;;-1.68;100.00;95735.25;1018157;29;20048;-73
2021/01/13 01:58:45;;;;;;;16.52;12.65;;;;;;;-1.69;100.00;95737.03;1013121;29;20782;-72
2021/01/13 01:59:16;;;;;;;15.70;12.55;;;;;;;-1.68;100.00;95738.66;1017587;29;20027;-75
2021/01/13 02:00:17;;;;;;;15.80;12.95;;;;;;;-1.66;100.00;95741.03;1020679;29;20326;-73
2021/01/13 02:00:48;;;;;;;15.98;12.60;;;;;;;-1.68;100.00;95741.25;1025348;28;20082;-72
2021/01/13 02:01:30;;;;;;;14.90;12.52;;;;;;;-1.62;100.00;95737.03;1020769;29;20267;-73
2021/01/13 02:02:02;;;;;;;15.30;12.27;;;;;;;-1.62;100.00;95744.84;1024626;29;20024;-74
2021/01/13 02:02:36;;;;;;;14.73;12.45;;;;;;;-1.64;100.00;95747.63;1020565;29;20282;-73
2021/01/13 02:03:13;;;;;;;15.35;12.77;;;;;;;-1.62;100.00;95745.63;1025237;28;20289;-73
2021/01/13 02:03:52;;;;;;;17.30;13.18;;;;;;;-1.66;100.00;95743.66;1024720;29;20262;-73
2021/01/13 02:04:29;;;;;;;16.17;11.90;;;;;;;-1.62;100.00;95745.63;1027127;28;20767;-74
2021/01/13 02:05:00;;;;;;;16.05;12.38;;;;;;;-1.63;100.00;95745.81;1024712;29;20466;-73
2021/01/13 02:05:30;;;;;;;16.10;12.77;;;;;;;-1.61;100.00;95749.00;1026844;28;20255;-73
2021/01/13 02:06:05;;;;;;;16.27;13.18;;;;;;;-1.58;100.00;95745.22;1027687;28;20041;-72
2021/01/13 02:07:04;;;;;;;14.35;12.80;;;;;;;-1.60;100.00;95748.81;1028639;28;20122;-73
2021/01/13 02:07:36;;;;;;;15.25;13.15;;;;;;;-1.54;100.00;95751.59;1020135;29;20363;-73
2021/01/13 02:08:07;;;;;;;16.33;13.38;;;;;;;-1.51;100.00;95754.56;1019811;29;20268;-73
2021/01/13 02:08:38;;;;;;;15.07;12.98;;;;;;;-1.51;100.00;95757.16;1019485;29;20275;-73
2021/01/13 02:09:10;;;;;;;16.98;13.82;;;;;;;-1.48;100.00;95759.38;1023809;28;20022;-76
2021/01/13 02:09:41;;;;;;;16.48;13.13;;;;;;;-1.49;100.00;95757.75;1020683;29;20267;-74
2021/01/13 02:10:12;;;;;;;17.25;12.48;;;;;;;-1.46;100.00;95756.56;1021474;28;20354;-72
2021/01/13 02:10:43;;;;;;;15.95;12.85;;;;;;;-1.47;100.00;95757.56;1028575;28;20114;-74
2021/01/13 02:11:18;;;;;;;17.35;13.68;;;;;;;-1.50;100.00;95761.38;1028811;28;20635;-74
2021/01/13 02:11:51;;;;;;;14.60;12.70;;;;;;;-1.47;100.00;95757.56;1032902;28;20106;-73
2021/01/13 02:12:27;;;;;;;16.92;13.45;;;;;;;-1.48;100.00;95754.19;1032960;28;20266;-72
2021/01/13 02:13:05;;;;;;;13.95;12.10;;;;;;;-1.45;100.00;95750.38;1032932;28;20261;-73
2021/01/13 02:13:36;;;;;;;13.73;11.60;;;;;;;-1.46;100.00;95759.16;1024650;29;20271;-73
2021/01/13 02:14:07;;;;;;;16.05;13.75;;;;;;;-1.50;100.00;95752.78;1024601;29;20349;-71
2021/01/13 02:14:41;;;;;;;14.93;13.05;;;;;;;-1.50;100.00;95753.59;1024660;29;20035;-72
2021/01/13 02:15:11;;;;;;;15.18;12.57;;;;;;;-1.47;100.00;95760.94;1025652;28;20031;-74
2021/01/13 02:15:43;;;;;;;15.50;12.68;;;;;;;-1.45;100.00;95755.56;1024481;28;20290;-72
2021/01/13 02:16:16;;;;;;;18.13;13.43;;;;;;;-1.45;100.00;95750.38;1024606;29;20039;-72
2021/01/13 02:16:50;;;;;;;17.38;13.20;;;;;;;-1.49;100.00;95749.97;1024577;29;20313;-73
2021/01/13 02:17:33;;;;;;;15.95;13.07;;;;;;;-1.52;100.00;95745.19;1017590;29;20265;-73
2021/01/13 02:18:04;;;;;;;19.83;12.80;;;;;;;-1.48;100.00;95748.19;1016739;29;20822;-73
2021/01/13 02:18:35;;;;;;;14.93;12.43;;;;;;;-1.47;100.00;95750.56;1016752;29;20315;-74
2021/01/13 02:19:05;;;;;;;17.08;13.68;;;;;;;-1.49;100.00;95746.59;1016309;29;20047;-74
2021/01/13 02:19:48;;;;;;;16.48;13.27;;;;;;;-1.50;100.00;95743.19;1017057;29;20734;-74
2021/01/13 02:20:19;;;;;;;16.50;13.02;;;;;;;-1.52;100.00;95741.81;1022213;29;20556;-73
2021/01/13 02:20:54;;;;;;;14.68;12.82;;;;;;;-1.51;100.00;95746.00;1020234;29;20271;-73
2021/01/13 02:21:31;;;;;;;17.08;13.65;;;;;;;-1.54;100.00;95742.00;1018922;29;20107;-73
2021/01/13 02:22:03;;;;;;;14.90;12.80;;;;;;;-1.51;100.00;95749.38;1016698;29;20736;-73
2021/01/13 02:22:57;;;;;;;16.70;13.75;;;;;;;-1.58;100.00;95737.44;1018214;29;20252;-73
2021/01/13 02:23:34;;;;;;;16.02;12.57;;;;;;;-1.53;100.00;95741.00;1028251;28;20751;-74
2021/01/13 02:24:10;;;;;;;17.35;13.13;;;;;;;-1.53;100.00;95746.19;1032551;28;20800;-73
2021/01/13 02:25:02;;;;;;;16.30;13.38;;;;;;;-1.55;100.00;95750.78;1032951;28;20287;-73
2021/01/13 02:26:00;;;;;;;18.50;13.43;;;;;;;-1.58;100.00;95748.63;1035288;28;20738;-73
2021/01/13 02:26:50;;;;;;;17.58;12.57;;;;;;;-1.58;100.00;95746.03;1036882;28;20280;-74
2021/01/13 02:27:54;;;;;;;17.40;11.82;;;;;;;-1.61;100.00;95754.19;1037033;28;20389;-73
2021/01/13 02:28:26;;;;;;;14.57;11.68;;;;;;;-1.71;100.00;95752.00;1032532;28;20019;-74